Pitt Greenville Airport
KPGV : now visible

Airfield :











YOU CAN JOIN US ON...

 
LOGIN :

Register | Disclaimer

   EN    FR    IT 

 









Legend :    VFR   Marginal VFR   IFR   Intensive IFR   Very Intensive IFR
Visi :
Ceiling :
>= 8 km
>= 3000ft
5 to 8 km
1000 to 3000 ft
1500m to 5 km
500 to 1000 ft
800 to 1500m
200 to 500 ft
< 800m
< 200 ft
Symbols :   Thunderstorms  Fog  Heavy snow  Heavy precipitations  Wind > 20 kt






- Airport Elevation : 26 ft


KPGV - Pitt Greenville

CURRENT METAR :
  • 280835Z AUTO 00000KT 1 1/4SM BR VV007 09/09 A2991 RMK AO2 VIS 1/2V5

EXPIRED METARs :
  • 280815Z AUTO 00000KT 7SM CLR 10/09 A2990 RMK AO2
  • 280755Z AUTO 00000KT 1SM BR VV007 09/08 A2989 RMK AO2
  • 280735Z AUTO 25003KT 1 3/4SM BR VV007 10/10 A2990 RMK AO2 VIS 1/2V5
  • 280715Z AUTO 00000KT 3/4SM BR VV005 10/10 A2988 RMK AO2
  • 280655Z AUTO 00000KT 4SM BR CLR 10/10 A2988 RMK AO2
  • 280635Z AUTO 00000KT 5SM BR CLR 10/09 A2989 RMK AO2
  • 280615Z AUTO 00000KT 2 1/2SM BR CLR 10/10 A2990 RMK AO2 VIS 1V5
  • 280555Z AUTO 00000KT 1 1/4SM BR VV007 10/10 A2989 RMK AO2

TAF KPGV
Valid from the 28 at 06:00 until the 29 at 06:00 UTC


280533Z 2806/2906 00000KT 5SM BR SKC
TEMPO 2808/2811 1SM BR
FM281200 10007KT P6SM SCT025 BKN150
FM290000 10010KT P6SM VCSH OVC015
FM290200 10011KT 6SM -SHRA SCT007 OVC015 AMD LTD TO CLD VIS AND WIND
KZDC FIR / North America



MET'MAP, your aeronautical weather chart ! - Copyright ORBIFLY December 2007 - Disclaimer

ORBIFLY MET'MAP TEAM :

Programming & Development : Alexandra Zaïnal
Concept & original design : Baudouin d'Aumeries
Assistance for programming : Marc-Olivier Méhu
Technical & hardware support : Manuel Goepfert

Contact : metmap@orbifly.com




SOURCES & CREDITS :

   NOAA       Earth
Advisory